Portada
METAR-TAF:

METAR-TAF

Aeroports :

Newport State Airport

Newport, Rhode Island, Estats Units d'Amèrica

latitud: 41-31-48N, longitud: 071-17-01W, altitud: 52 m

Observació

L'informe es va fer fa 42 minuts, a les 15:53 UTC
Vent 4 kt del Sud
Temperatura 22°C
Humitat 73%
Pressió 1023 hPa
Visibilitat: 16.1 km
Cel clar

METAR: KUUU 261553Z AUTO 17004KT 10SM CLR 22/17 A3022 RMK AO2 SLP230 T02170172

Hora: 12:35 (16:35 UTC)


TAF: manca

Observacions i pronòstics meteorològics de més de 4000 aeroports (METAR i TAF).

Les estacions disponibles són els punts grocs i vermells al mapa.

Posi el ratolí al punt desitjat per veure el nom de l'estació.

Feu clic per veure les observacions i els pronòstics meteorològics.

Per canviar el mapa: feu clic els botons verds amb una creu de color negre per apropar; al botó verd amb un guió per allunyar la imatge; o en les fletxes verdes per a mapes adjacents.


METAR-TAF: